Terminal Aerodrome Forecast
Issued by NWS Mt. Holly, NJ

Home | Current Version | Previous Version | Text Only | Print | Product List | Glossary On
Versions: 1 2 3 4 5 6 7 8 9 10 11 12 13 14 15
000
FTUS41 KPHI 050537
TAFABE
TAF
KABE 050537Z 0506/0606 VRB03KT 5SM BR BKN035 BKN250
      TEMPO 0509/0512 2SM BR
     FM051300 30003KT P6SM SCT250
     FM051600 24005KT P6SM FEW050
     FM060000 21004KT P6SM BKN250=

USA.gov is the U.S. government's official web portal to all federal, state and local government web resources and services.